Argyle, Minnesota
Current Conditions -  °F | °C
As of 8:55 AM on Monday 24 Nov 2014 (Local Time) from KGAF Reporting Station
Broken Clouds Broken Clouds  
Wind Chill: -19°   Ceiling: 1500
Heat Index:   Visibility: 8mi
Dew Point:   Wind: 22mph
Humidity: 85%   Direction: 340°NNW
Pressure: 29.78"   Gusts: 29mph
Location:  48.33°N, 96.82°W
Report Text: KGAF 241455Z AUTO 34019G25KT 8SM BKN015 M16/M18 A2978 RMK AO2
Loading
Personal Weather Stations






























Interactive Weather Map New forecast layout! Learn more

10-Day Weather Forecast

Advertisements
Track Severe Weather on mobile